createdAt,value
2022-10-04T00:01:37.739Z,9.00
2022-10-04T00:03:43.015Z,9.00
2022-10-04T00:05:47.339Z,9.00
2022-10-04T00:07:51.663Z,9.00
2022-10-04T00:09:57.065Z,8.90
2022-10-04T00:12:00.282Z,8.90
2022-10-04T00:14:04.551Z,8.70
2022-10-04T00:16:07.282Z,8.70
2022-10-04T00:18:20.601Z,8.70
2022-10-04T00:20:42.355Z,8.70
2022-10-04T00:22:49.312Z,8.70
2022-10-04T00:25:02.302Z,8.60
2022-10-04T00:27:12.193Z,8.60
2022-10-04T00:29:31.086Z,8.50
2022-10-04T00:31:33.625Z,8.50
2022-10-04T00:33:37.015Z,8.60
2022-10-04T00:35:49.618Z,8.60
2022-10-04T00:37:56.089Z,8.70
2022-10-04T00:40:01.013Z,8.70
2022-10-04T00:42:05.868Z,8.70
2022-10-04T00:44:10.282Z,8.70
2022-10-04T00:46:13.909Z,8.70
2022-10-04T00:48:31.376Z,8.70
2022-10-04T00:50:35.925Z,8.70
2022-10-04T00:52:40.194Z,8.70
2022-10-04T00:54:44.134Z,8.60
2022-10-04T00:56:50.490Z,8.40
2022-10-04T00:59:24.454Z,8.50
2022-10-04T01:03:43.582Z,8.60
2022-10-04T01:05:47.467Z,8.60
2022-10-04T01:07:52.450Z,8.70
2022-10-04T01:09:56.562Z,8.70
2022-10-04T01:12:01.621Z,8.70
2022-10-04T01:14:05.957Z,8.60
2022-10-04T01:16:12.480Z,8.50
2022-10-04T01:18:16.451Z,8.50
2022-10-04T01:20:26.788Z,8.30
2022-10-04T01:22:40.256Z,8.30
2022-10-04T01:24:43.439Z,8.50
2022-10-04T01:26:45.926Z,8.50
2022-10-04T01:28:48.493Z,8.50
2022-10-04T01:30:52.378Z,8.50
2022-10-04T01:32:54.862Z,8.60
2022-10-04T01:34:57.814Z,8.60
2022-10-04T01:37:01.030Z,8.60
2022-10-04T01:39:04.162Z,8.60
2022-10-04T01:41:08.170Z,8.60
2022-10-04T01:43:12.491Z,8.60
2022-10-04T01:47:34.562Z,8.60
2022-10-04T01:49:38.376Z,8.60
2022-10-04T01:51:44.239Z,8.70
2022-10-04T01:53:48.610Z,8.70
2022-10-04T01:55:52.214Z,8.70
2022-10-04T01:57:56.521Z,8.70
2022-10-04T02:00:01.278Z,8.70
2022-10-04T02:02:06.844Z,8.70
2022-10-04T02:04:11.152Z,8.70
2022-10-04T02:06:14.573Z,8.70
2022-10-04T02:08:18.327Z,8.80
2022-10-04T02:10:21.034Z,8.80
2022-10-04T02:12:23.739Z,8.80
2022-10-04T02:14:27.951Z,8.80
2022-10-04T02:16:30.873Z,8.70
2022-10-04T02:18:33.794Z,8.80
2022-10-04T02:20:38.110Z,8.80
2022-10-04T02:22:42.531Z,8.80
2022-10-04T02:24:46.579Z,8.70
2022-10-04T02:26:51.992Z,8.70
2022-10-04T02:28:54.572Z,8.80
2022-10-04T02:31:16.692Z,8.80
2022-10-04T02:33:19.363Z,8.80
2022-10-04T02:35:22.180Z,8.80
2022-10-04T02:37:26.480Z,8.80
2022-10-04T02:39:41.215Z,8.80
2022-10-04T02:41:47.138Z,8.90
2022-10-04T02:44:06.306Z,8.90
2022-10-04T02:46:10.690Z,8.80
2022-10-04T02:48:16.819Z,8.70
2022-10-04T02:52:38.812Z,8.80
2022-10-04T02:54:43.085Z,8.80
2022-10-04T02:56:45.684Z,8.80
2022-10-04T02:58:48.289Z,8.80
2022-10-04T03:00:51.888Z,8.90
2022-10-04T03:03:11.971Z,8.90
2022-10-04T03:05:14.866Z,9.00
2022-10-04T03:07:18.374Z,9.00
2022-10-04T03:09:26.141Z,9.00
2022-10-04T03:11:29.520Z,9.10
2022-10-04T03:13:32.754Z,9.10
2022-10-04T03:15:35.272Z,9.10
2022-10-04T03:17:39.556Z,9.10
2022-10-04T03:19:42.045Z,9.20
2022-10-04T03:21:46.356Z,9.20
2022-10-04T03:23:50.230Z,9.20
2022-10-04T03:25:54.559Z,9.20
2022-10-04T03:27:58.953Z,9.20
2022-10-04T03:30:01.766Z,9.30
2022-10-04T03:32:04.769Z,9.30
2022-10-04T03:34:09.121Z,9.30
2022-10-04T03:36:13.588Z,9.30
2022-10-04T03:38:17.723Z,9.20
2022-10-04T03:40:22.374Z,9.20
2022-10-04T03:42:25.458Z,9.10
2022-10-04T03:44:27.962Z,9.00
2022-10-04T03:46:30.542Z,9.00
2022-10-04T03:48:34.819Z,9.10
2022-10-04T03:50:40.155Z,9.10
2022-10-04T03:52:44.563Z,9.10
2022-10-04T03:54:47.264Z,9.10
2022-10-04T03:56:50.752Z,9.20
2022-10-04T03:58:53.670Z,9.10
2022-10-04T04:01:00.548Z,9.20
2022-10-04T04:03:04.959Z,9.20
2022-10-04T04:05:10.614Z,9.20
2022-10-04T04:07:15.328Z,9.30
2022-10-04T04:09:20.092Z,9.30
2022-10-04T04:13:41.042Z,9.30
2022-10-04T04:15:45.055Z,9.30
2022-10-04T04:17:48.154Z,9.20
2022-10-04T04:19:50.839Z,9.20
2022-10-04T04:21:54.884Z,9.20
2022-10-04T04:23:58.609Z,9.20
2022-10-04T04:26:02.906Z,9.20
2022-10-04T04:28:13.282Z,9.10
2022-10-04T04:30:17.351Z,9.10
2022-10-04T04:32:22.572Z,9.10
2022-10-04T04:34:27.209Z,9.00
2022-10-04T04:36:30.526Z,9.00
2022-10-04T04:38:34.729Z,9.00
2022-10-04T04:40:37.471Z,9.00
2022-10-04T04:42:39.946Z,9.00
2022-10-04T04:44:46.805Z,9.00
2022-10-04T04:46:49.410Z,9.00
2022-10-04T04:48:53.854Z,9.00
2022-10-04T04:50:58.267Z,9.00
2022-10-04T04:53:03.015Z,9.00
2022-10-04T04:55:06.778Z,9.00
2022-10-04T04:57:09.364Z,9.00
2022-10-04T04:59:12.483Z,9.00
2022-10-04T05:01:17.785Z,9.00
2022-10-04T05:03:20.931Z,9.00
2022-10-04T05:05:24.272Z,9.00
2022-10-04T05:07:28.919Z,8.90
2022-10-04T05:09:32.494Z,8.90
2022-10-04T05:11:36.582Z,8.80
2022-10-04T05:13:40.620Z,8.80
2022-10-04T05:15:43.594Z,8.80
2022-10-04T05:17:46.178Z,8.70
2022-10-04T05:19:49.138Z,8.60
2022-10-04T05:21:52.746Z,8.60
2022-10-04T05:23:56.970Z,8.60
2022-10-04T05:26:01.651Z,8.60
2022-10-04T05:28:04.932Z,8.70
2022-10-04T05:30:09.147Z,8.70
2022-10-04T05:32:14.046Z,8.70
2022-10-04T05:34:18.993Z,8.70
2022-10-04T05:36:39.080Z,8.70
2022-10-04T05:38:44.674Z,8.60
2022-10-04T05:40:49.686Z,8.70
2022-10-04T05:42:53.968Z,8.70
2022-10-04T05:44:57.382Z,8.60
2022-10-04T05:47:00.384Z,8.60
2022-10-04T05:49:04.663Z,8.60
2022-10-04T05:51:14.667Z,8.60
2022-10-04T05:55:39.859Z,8.70
2022-10-04T05:57:44.343Z,8.70
2022-10-04T06:00:04.344Z,8.80
2022-10-04T06:02:09.866Z,8.80
2022-10-04T06:04:19.052Z,8.70
2022-10-04T06:06:23.574Z,8.70
2022-10-04T06:08:36.450Z,8.70
2022-10-04T06:10:50.166Z,8.60
2022-10-04T06:12:54.695Z,8.50
2022-10-04T06:15:16.460Z,8.50
2022-10-04T06:17:24.069Z,8.50
2022-10-04T06:19:48.494Z,8.60
2022-10-04T06:21:58.738Z,8.60
2022-10-04T06:24:03.095Z,8.60
2022-10-04T06:26:07.677Z,8.70
2022-10-04T06:28:13.398Z,8.70
2022-10-04T06:30:16.943Z,8.80
2022-10-04T06:35:05.951Z,8.80
2022-10-04T06:37:19.131Z,8.90
2022-10-04T06:39:46.819Z,9.00
2022-10-04T06:41:59.139Z,9.00
2022-10-04T06:44:07.190Z,9.10
2022-10-04T06:46:12.670Z,9.20
2022-10-04T06:48:20.442Z,9.20
2022-10-04T06:50:27.009Z,9.20
2022-10-04T06:54:54.466Z,9.30
2022-10-04T06:57:11.939Z,9.30
2022-10-04T06:59:36.273Z,9.40
2022-10-04T07:01:40.619Z,9.40
2022-10-04T07:03:50.573Z,9.50
2022-10-04T07:05:52.048Z,9.60
2022-10-04T07:08:01.566Z,9.70
2022-10-04T07:10:07.914Z,9.70
2022-10-04T07:12:14.037Z,9.70
2022-10-04T07:14:18.306Z,9.80
2022-10-04T07:16:32.637Z,9.80
2022-10-04T07:18:39.824Z,9.80
2022-10-04T07:20:42.700Z,9.90
2022-10-04T07:22:47.319Z,10.00
2022-10-04T07:24:54.082Z,10.00
2022-10-04T07:27:02.539Z,10.10
2022-10-04T07:29:22.137Z,10.20
2022-10-04T07:31:27.554Z,10.20
2022-10-04T07:33:31.975Z,10.40
2022-10-04T07:35:36.338Z,10.40
2022-10-04T07:37:40.842Z,10.50
2022-10-04T07:39:46.354Z,10.70
2022-10-04T07:41:51.813Z,10.90
2022-10-04T07:43:56.201Z,11.20
2022-10-04T07:46:03.277Z,11.30
2022-10-04T07:48:08.672Z,11.40
2022-10-04T07:50:22.151Z,11.50
2022-10-04T07:52:38.341Z,11.60
2022-10-04T07:54:42.681Z,11.80
2022-10-04T07:56:47.205Z,11.90
2022-10-04T07:58:51.700Z,12.10
2022-10-04T08:00:56.503Z,12.30
2022-10-04T08:03:04.782Z,12.40
2022-10-04T08:05:12.986Z,12.50
2022-10-04T08:07:17.279Z,12.70
2022-10-04T08:09:31.271Z,12.80
2022-10-04T08:11:39.174Z,13.00
2022-10-04T08:13:45.448Z,13.10
2022-10-04T08:15:48.938Z,13.30
2022-10-04T08:17:53.649Z,13.30
2022-10-04T08:19:58.975Z,13.40
2022-10-04T08:22:03.495Z,13.40
2022-10-04T08:26:31.374Z,13.60
2022-10-04T08:28:54.570Z,13.60
2022-10-04T08:31:01.707Z,13.70
2022-10-04T08:33:06.998Z,13.70
2022-10-04T08:35:27.624Z,13.70
2022-10-04T08:37:33.571Z,13.60
2022-10-04T08:39:48.683Z,13.70
2022-10-04T08:41:57.294Z,13.60
2022-10-04T08:44:12.757Z,13.60
2022-10-04T08:49:05.882Z,13.50
2022-10-04T08:51:36.368Z,13.50
2022-10-04T08:54:03.658Z,13.50
2022-10-04T08:56:08.775Z,13.50
2022-10-04T08:58:15.743Z,13.60
2022-10-04T09:00:20.729Z,13.70
2022-10-04T09:02:33.881Z,13.80
2022-10-04T09:05:14.315Z,13.90
2022-10-04T09:09:57.853Z,14.00
2022-10-04T09:12:05.816Z,14.10
2022-10-04T09:14:28.538Z,14.20
2022-10-04T09:16:35.045Z,14.20
2022-10-04T09:18:48.180Z,14.40
2022-10-04T09:20:58.527Z,14.40
2022-10-04T09:23:06.610Z,14.40
2022-10-04T09:25:22.038Z,14.50
2022-10-04T09:29:49.671Z,14.70
2022-10-04T09:32:45.847Z,14.80
2022-10-04T09:37:30.406Z,15.00
2022-10-04T09:39:41.712Z,15.30
2022-10-04T09:42:07.186Z,15.40
2022-10-04T09:44:33.401Z,15.70
2022-10-04T09:46:43.989Z,15.90
2022-10-04T09:48:50.374Z,16.20
2022-10-04T09:51:12.610Z,16.40
2022-10-04T09:53:34.767Z,16.50
2022-10-04T09:55:45.165Z,16.70
2022-10-04T09:58:05.154Z,17.00
2022-10-04T10:00:11.122Z,17.10
2022-10-04T10:02:46.154Z,17.40
2022-10-04T10:04:50.782Z,17.60
2022-10-04T10:07:00.105Z,17.80
2022-10-04T10:09:17.852Z,17.80
2022-10-04T10:11:40.270Z,17.90
2022-10-04T10:14:02.118Z,18.00
2022-10-04T10:16:07.617Z,18.20
2022-10-04T10:18:14.494Z,18.30
2022-10-04T10:23:08.356Z,18.50
2022-10-04T10:25:19.514Z,18.30
2022-10-04T10:27:36.584Z,18.40
2022-10-04T10:29:48.429Z,18.60
2022-10-04T10:31:53.639Z,18.50
2022-10-04T10:34:22.391Z,18.60
2022-10-04T10:36:28.828Z,18.50
2022-10-04T10:38:35.023Z,18.70
2022-10-04T10:40:43.578Z,18.70
2022-10-04T10:42:55.247Z,18.80
2022-10-04T10:45:07.703Z,18.80
2022-10-04T10:47:18.304Z,18.90
2022-10-04T10:49:43.822Z,18.90
2022-10-04T10:51:53.907Z,19.00
2022-10-04T10:54:04.959Z,19.10
2022-10-04T10:56:32.596Z,19.10
2022-10-04T11:00:56.731Z,19.00
2022-10-04T11:03:21.827Z,19.20
2022-10-04T11:05:28.359Z,19.30
2022-10-04T11:07:46.246Z,19.10
2022-10-04T11:09:56.061Z,19.30
2022-10-04T11:12:21.103Z,19.50
2022-10-04T11:14:31.423Z,19.50
2022-10-04T11:16:56.742Z,19.40
2022-10-04T11:21:40.859Z,19.30
2022-10-04T11:23:59.551Z,19.30
2022-10-04T11:26:30.090Z,19.30
2022-10-04T11:31:04.238Z,19.20
2022-10-04T11:33:28.677Z,19.30
2022-10-04T11:35:50.406Z,19.40
2022-10-04T11:37:56.642Z,19.40
2022-10-04T11:40:12.367Z,19.50
2022-10-04T11:42:18.664Z,19.60
2022-10-04T11:44:40.603Z,19.60
2022-10-04T11:46:46.484Z,19.70
2022-10-04T11:48:53.852Z,19.80
2022-10-04T11:51:02.511Z,19.90
2022-10-04T11:53:33.428Z,19.90
2022-10-04T11:57:56.623Z,19.70
2022-10-04T12:00:02.174Z,19.90
2022-10-04T12:02:16.395Z,19.90
2022-10-04T12:04:44.320Z,19.90
2022-10-04T12:06:50.239Z,19.90
2022-10-04T12:08:56.404Z,19.70
2022-10-04T12:11:21.138Z,19.80
2022-10-04T12:13:42.823Z,19.80
2022-10-04T12:15:49.631Z,19.70
2022-10-04T12:18:06.668Z,19.80
2022-10-04T12:20:31.831Z,19.80
2022-10-04T12:25:18.022Z,19.70
2022-10-04T12:27:41.829Z,19.60
2022-10-04T12:30:02.026Z,19.50
2022-10-04T12:32:06.942Z,19.60
2022-10-04T12:34:14.041Z,19.70
2022-10-04T12:36:24.403Z,19.70
2022-10-04T12:41:02.401Z,19.80
2022-10-04T12:43:08.308Z,19.90
2022-10-04T12:45:19.519Z,19.90
2022-10-04T12:47:45.022Z,20.00
2022-10-04T12:49:49.418Z,20.00
2022-10-04T12:51:55.832Z,20.00
2022-10-04T12:54:00.644Z,20.00
2022-10-04T12:56:07.816Z,20.00
2022-10-04T12:58:12.561Z,19.90
2022-10-04T13:00:17.231Z,20.00
2022-10-04T13:02:24.859Z,19.90
2022-10-04T13:04:30.526Z,19.90
2022-10-04T13:06:37.935Z,19.90
2022-10-04T13:08:50.030Z,20.00
2022-10-04T13:11:00.461Z,20.00
2022-10-04T13:13:27.882Z,20.00
2022-10-04T13:17:25.175Z,20.00
2022-10-04T13:17:40.894Z,20.10
2022-10-04T13:19:48.420Z,20.00
2022-10-04T13:22:31.875Z,20.00
2022-10-04T13:24:22.071Z,19.90
2022-10-04T13:26:37.166Z,20.00
2022-10-04T13:28:42.389Z,20.00
2022-10-04T13:30:47.091Z,20.00
2022-10-04T13:32:52.845Z,19.90
2022-10-04T13:34:57.047Z,20.10
2022-10-04T13:37:28.344Z,20.20
2022-10-04T13:39:55.898Z,20.20
2022-10-04T13:42:10.092Z,20.20
2022-10-04T13:44:29.547Z,20.20
2022-10-04T13:46:34.055Z,20.20
2022-10-04T13:48:43.765Z,20.30
2022-10-04T13:50:55.198Z,20.20
2022-10-04T13:53:19.162Z,20.10
2022-10-04T13:55:48.151Z,20.10
2022-10-04T14:00:10.407Z,20.20
2022-10-04T14:02:32.007Z,20.20
2022-10-04T14:04:44.091Z,20.10
2022-10-04T14:07:01.378Z,20.20
2022-10-04T14:09:14.071Z,20.10
2022-10-04T14:11:45.105Z,20.20
2022-10-04T14:14:12.834Z,20.20
2022-10-04T14:18:51.847Z,20.30
2022-10-04T14:21:19.438Z,20.20
2022-10-04T14:23:35.007Z,20.10
2022-10-04T14:25:59.416Z,20.20
2022-10-04T14:28:14.860Z,20.30
2022-10-04T14:30:19.854Z,20.30
2022-10-04T14:32:46.294Z,20.30
2022-10-04T14:34:55.375Z,20.20
2022-10-04T14:37:03.773Z,20.20
2022-10-04T14:39:29.348Z,20.20
2022-10-04T14:41:53.722Z,20.30
2022-10-04T14:44:33.519Z,20.30
2022-10-04T14:46:40.372Z,20.20
2022-10-04T14:48:45.775Z,20.30
2022-10-04T14:50:53.207Z,20.20
2022-10-04T14:53:01.484Z,20.20
2022-10-04T14:55:12.707Z,20.10
2022-10-04T14:57:19.513Z,20.10
2022-10-04T14:59:25.718Z,20.10
2022-10-04T15:01:28.612Z,20.20
2022-10-04T15:03:33.922Z,20.40
2022-10-04T15:05:43.547Z,20.40
2022-10-04T15:07:48.688Z,20.40
2022-10-04T15:09:54.381Z,20.30
2022-10-04T15:14:04.688Z,20.00
2022-10-04T15:16:14.313Z,19.90
2022-10-04T15:18:27.264Z,19.80
2022-10-04T15:20:31.855Z,19.90
2022-10-04T15:22:39.878Z,19.90
2022-10-04T15:24:47.316Z,19.90
2022-10-04T15:26:52.524Z,19.70
2022-10-04T15:28:59.528Z,19.70
2022-10-04T15:31:04.212Z,19.70
2022-10-04T15:33:10.930Z,19.60
2022-10-04T15:35:20.592Z,19.60
2022-10-04T15:39:43.931Z,19.60
2022-10-04T15:41:48.315Z,19.70
2022-10-04T15:43:53.403Z,19.60
2022-10-04T15:46:06.573Z,19.70
2022-10-04T15:50:41.020Z,19.60
2022-10-04T15:52:50.601Z,19.60
2022-10-04T15:55:10.791Z,19.60
2022-10-04T15:57:19.806Z,19.40
2022-10-04T15:59:25.230Z,19.40
2022-10-04T16:01:32.362Z,19.30
2022-10-04T16:03:41.938Z,19.20
2022-10-04T16:05:46.042Z,19.10
2022-10-04T16:08:10.749Z,18.90
2022-10-04T16:10:16.983Z,18.90
2022-10-04T16:12:23.176Z,18.70
2022-10-04T16:14:47.623Z,18.50
2022-10-04T16:17:12.396Z,18.50
2022-10-04T16:19:19.487Z,18.40
2022-10-04T16:21:27.906Z,18.30
2022-10-04T16:23:32.403Z,18.20
2022-10-04T16:25:38.366Z,18.30
2022-10-04T16:27:45.467Z,18.10
2022-10-04T16:30:14.622Z,18.10
2022-10-04T16:31:57.489Z,18.10
2022-10-04T16:34:03.433Z,17.90
2022-10-04T16:36:09.407Z,17.90
2022-10-04T16:38:31.821Z,17.70
2022-10-04T16:40:37.121Z,17.70
2022-10-04T16:42:47.916Z,17.60
2022-10-04T16:44:52.704Z,17.60
2022-10-04T16:46:55.699Z,17.60
2022-10-04T16:48:59.290Z,17.60
2022-10-04T16:51:06.740Z,17.60
2022-10-04T16:53:17.894Z,17.50
2022-10-04T16:55:31.633Z,17.40
2022-10-04T16:57:34.150Z,17.40
2022-10-04T16:59:51.700Z,17.40
2022-10-04T17:02:05.840Z,17.40
2022-10-04T17:04:12.991Z,17.30
2022-10-04T17:06:15.939Z,17.30
2022-10-04T17:08:23.142Z,17.20
2022-10-04T17:10:31.432Z,17.00
2022-10-04T17:12:36.668Z,16.90
2022-10-04T17:15:00.031Z,16.80
2022-10-04T17:17:04.415Z,16.80
2022-10-04T17:19:19.964Z,16.70
2022-10-04T17:21:26.398Z,16.70
2022-10-04T17:23:34.022Z,16.60
2022-10-04T17:25:38.828Z,16.50
2022-10-04T17:27:46.053Z,16.30
2022-10-04T17:29:53.102Z,16.30
2022-10-04T17:31:57.071Z,16.20
2022-10-04T17:34:02.778Z,16.10
2022-10-04T17:36:18.736Z,15.90
2022-10-04T17:38:23.667Z,15.80
2022-10-04T17:40:39.473Z,15.70
2022-10-04T17:42:44.527Z,15.60
2022-10-04T17:44:50.418Z,15.60
2022-10-04T17:46:55.849Z,15.60
2022-10-04T17:49:17.898Z,15.50
2022-10-04T17:51:49.559Z,15.40
2022-10-04T17:54:11.815Z,15.40
2022-10-04T17:56:16.255Z,15.40
2022-10-04T17:58:19.870Z,15.40
2022-10-04T18:00:23.609Z,15.40
2022-10-04T18:02:30.084Z,15.40
2022-10-04T18:04:34.863Z,15.40
2022-10-04T18:08:54.446Z,15.00
2022-10-04T18:10:58.824Z,15.10
2022-10-04T18:13:03.440Z,15.00
2022-10-04T18:15:07.938Z,15.00
2022-10-04T18:17:12.233Z,14.90
2022-10-04T18:19:35.986Z,14.80
2022-10-04T18:21:40.410Z,14.80
2022-10-04T18:23:46.408Z,14.80
2022-10-04T18:25:49.091Z,14.80
2022-10-04T18:27:52.746Z,14.70
2022-10-04T18:30:00.354Z,14.60
2022-10-04T18:32:13.523Z,14.50
2022-10-04T18:34:17.911Z,14.30
2022-10-04T18:36:23.001Z,14.10
2022-10-04T18:38:27.308Z,13.90
2022-10-04T18:40:33.427Z,13.80
2022-10-04T18:42:36.908Z,13.70
2022-10-04T18:44:44.571Z,13.60
2022-10-04T18:46:49.863Z,13.50
2022-10-04T18:48:53.950Z,13.40
2022-10-04T18:51:00.090Z,13.40
2022-10-04T18:53:21.724Z,13.30
2022-10-04T18:55:29.202Z,13.30
2022-10-04T18:57:32.716Z,13.20
2022-10-04T18:59:55.881Z,13.30
2022-10-04T19:02:03.335Z,13.30
2022-10-04T19:04:07.785Z,13.20
2022-10-04T19:06:12.622Z,13.20
2022-10-04T19:08:20.211Z,13.20
2022-10-04T19:10:25.356Z,13.10
2022-10-04T19:12:29.696Z,13.10
2022-10-04T19:14:34.123Z,13.00
2022-10-04T19:16:38.942Z,13.00
2022-10-04T19:18:46.015Z,12.90
2022-10-04T19:20:50.446Z,12.80
2022-10-04T19:22:54.931Z,12.80
2022-10-04T19:25:02.572Z,12.80
2022-10-04T19:27:06.210Z,12.70
2022-10-04T19:29:11.407Z,12.80
2022-10-04T19:31:18.026Z,12.80
2022-10-04T19:33:22.419Z,12.80
2022-10-04T19:35:32.510Z,12.80
2022-10-04T19:37:36.794Z,12.70
2022-10-04T19:39:42.563Z,12.60
2022-10-04T19:41:48.894Z,12.50
2022-10-04T19:43:53.808Z,12.50
2022-10-04T19:46:03.869Z,12.50
2022-10-04T19:48:10.574Z,12.40
2022-10-04T19:50:18.939Z,12.30
2022-10-04T19:54:40.559Z,12.20
2022-10-04T19:56:46.119Z,12.10
2022-10-04T19:58:51.466Z,12.10
2022-10-04T20:00:56.324Z,12.10
2022-10-04T20:03:00.573Z,12.10
2022-10-04T20:05:11.556Z,12.10
2022-10-04T20:07:22.423Z,12.00
2022-10-04T20:09:28.909Z,12.00
2022-10-04T20:11:48.506Z,12.00
2022-10-04T20:14:14.899Z,12.00
2022-10-04T20:16:22.956Z,11.90
2022-10-04T20:18:44.708Z,12.00
2022-10-04T20:21:09.202Z,11.90
2022-10-04T20:23:14.498Z,11.70
2022-10-04T20:25:37.547Z,11.70
2022-10-04T20:27:58.693Z,11.70
2022-10-04T20:30:05.639Z,11.60
2022-10-04T20:32:10.248Z,11.50
2022-10-04T20:34:33.465Z,11.60
2022-10-04T20:36:52.437Z,11.70
2022-10-04T20:38:59.329Z,11.70
2022-10-04T20:41:03.072Z,11.70
2022-10-04T20:43:24.396Z,11.80
2022-10-04T20:45:30.438Z,11.80
2022-10-04T20:47:38.023Z,11.90
2022-10-04T20:49:45.141Z,11.90
2022-10-04T20:51:49.617Z,11.90
2022-10-04T20:53:54.086Z,12.00
2022-10-04T20:56:11.552Z,12.00
2022-10-04T20:58:26.676Z,12.00
2022-10-04T21:00:33.513Z,11.90
2022-10-04T21:02:37.192Z,11.80
2022-10-04T21:04:42.194Z,11.70
2022-10-04T21:06:55.265Z,11.50
2022-10-04T21:08:57.782Z,11.40
2022-10-04T21:11:25.157Z,11.40
2022-10-04T21:13:44.848Z,11.30
2022-10-04T21:15:55.911Z,11.40
2022-10-04T21:18:02.859Z,11.20
2022-10-04T21:20:06.778Z,11.20
2022-10-04T21:22:09.930Z,11.40
2022-10-04T21:24:27.692Z,11.30
2022-10-04T21:28:46.510Z,11.30
2022-10-04T21:30:49.039Z,11.30
2022-10-04T21:32:51.708Z,11.30
2022-10-04T21:34:54.828Z,11.30
2022-10-04T21:36:58.278Z,11.40
2022-10-04T21:39:00.756Z,11.40
2022-10-04T21:41:03.286Z,11.30
2022-10-04T21:43:05.840Z,11.30
2022-10-04T21:45:08.862Z,11.30
2022-10-04T21:47:11.446Z,11.30
2022-10-04T21:49:13.972Z,11.30
2022-10-04T21:51:16.491Z,11.30
2022-10-04T21:53:19.160Z,11.30
2022-10-04T21:55:21.659Z,11.60
2022-10-04T21:57:24.259Z,11.80
2022-10-04T21:59:26.719Z,12.10
2022-10-04T22:01:29.318Z,12.30
2022-10-04T22:03:31.863Z,12.40
2022-10-04T22:05:34.446Z,12.60
2022-10-04T22:07:36.956Z,12.90
2022-10-04T22:09:39.457Z,13.00
2022-10-04T22:11:42.001Z,13.00
2022-10-04T22:13:46.122Z,13.10
2022-10-04T22:15:48.585Z,13.20
2022-10-04T22:17:51.173Z,13.20
2022-10-04T22:19:53.796Z,13.20
2022-10-04T22:21:56.359Z,13.20
2022-10-04T22:23:58.861Z,13.30
2022-10-04T22:26:01.750Z,13.30
2022-10-04T22:28:11.421Z,13.30
2022-10-04T22:30:20.449Z,13.20
2022-10-04T22:32:25.037Z,13.20
2022-10-04T22:34:27.909Z,13.20
2022-10-04T22:36:32.343Z,13.20
2022-10-04T22:38:34.832Z,13.20
2022-10-04T22:40:37.348Z,13.20
2022-10-04T22:45:11.528Z,13.10
2022-10-04T22:47:18.828Z,13.20
2022-10-04T22:49:25.203Z,13.10
2022-10-04T22:51:28.934Z,13.10
2022-10-04T22:53:31.482Z,13.00
2022-10-04T22:55:34.974Z,13.10
2022-10-04T22:57:37.450Z,13.10
2022-10-04T22:59:41.064Z,13.10
2022-10-04T23:01:43.554Z,13.00
2022-10-04T23:03:46.889Z,13.10
2022-10-04T23:05:49.437Z,13.00
2022-10-04T23:07:51.907Z,13.10
2022-10-04T23:09:56.516Z,13.00
2022-10-04T23:12:02.467Z,13.00
2022-10-04T23:14:08.257Z,13.00
2022-10-04T23:16:13.738Z,13.00
2022-10-04T23:18:16.835Z,13.10
2022-10-04T23:20:20.183Z,13.00
2022-10-04T23:22:24.482Z,13.00
2022-10-04T23:24:28.761Z,13.10
2022-10-04T23:26:33.251Z,13.00
2022-10-04T23:28:36.722Z,13.00
2022-10-04T23:30:39.322Z,13.00
2022-10-04T23:35:00.634Z,13.10
2022-10-04T23:37:03.278Z,13.10
2022-10-04T23:39:10.226Z,13.10
2022-10-04T23:41:12.910Z,13.20
2022-10-04T23:43:16.998Z,13.10
2022-10-04T23:45:20.868Z,13.20
2022-10-04T23:47:25.159Z,13.10
2022-10-04T23:49:28.074Z,13.10
2022-10-04T23:53:48.430Z,13.20
2022-10-04T23:55:50.914Z,13.20
2022-10-04T23:57:53.422Z,13.20
2022-10-04T23:59:57.726Z,13.20
